createdAt,value
2022-11-21T00:01:20.503Z,94.00
2022-11-21T00:03:49.749Z,94.40
2022-11-21T00:06:26.288Z,94.60
2022-11-21T00:08:56.875Z,94.70
2022-11-21T00:11:27.124Z,94.80
2022-11-21T00:13:55.874Z,94.60
2022-11-21T00:16:24.795Z,94.80
2022-11-21T00:18:53.552Z,95.00
2022-11-21T00:21:22.381Z,94.90
2022-11-21T00:23:51.153Z,96.20
2022-11-21T00:26:19.985Z,97.60
2022-11-21T00:28:50.322Z,97.40
2022-11-21T00:31:23.417Z,96.50
2022-11-21T00:33:52.173Z,95.70
2022-11-21T00:36:20.946Z,95.60
2022-11-21T00:38:50.055Z,95.10
2022-11-21T00:41:18.917Z,95.10
2022-11-21T00:43:47.667Z,95.00
2022-11-21T00:46:18.030Z,95.30
2022-11-21T00:48:46.850Z,95.10
2022-11-21T00:51:15.614Z,95.20
2022-11-21T00:53:44.488Z,95.20
2022-11-21T00:56:13.343Z,95.30
2022-11-21T00:58:42.182Z,95.40
2022-11-21T01:01:12.894Z,95.50
2022-11-21T01:03:44.060Z,95.60
2022-11-21T01:06:14.779Z,95.30
2022-11-21T01:08:45.421Z,95.60
2022-11-21T01:11:17.843Z,95.90
2022-11-21T01:13:47.781Z,95.70
2022-11-21T01:16:18.297Z,95.60
2022-11-21T01:18:49.184Z,95.50
2022-11-21T01:21:20.569Z,95.30
2022-11-21T01:23:50.002Z,95.70
2022-11-21T01:26:21.325Z,96.00
2022-11-21T01:28:50.713Z,96.40
2022-11-21T01:31:20.927Z,96.40
2022-11-21T01:33:51.874Z,96.20
2022-11-21T01:36:23.056Z,96.10
2022-11-21T01:38:53.878Z,96.10
2022-11-21T01:41:25.095Z,96.00
2022-11-21T01:43:53.872Z,95.80
2022-11-21T01:46:23.426Z,95.80
2022-11-21T01:48:58.623Z,96.20
2022-11-21T01:51:33.195Z,97.10
2022-11-21T01:54:07.620Z,98.00
2022-11-21T01:56:41.681Z,98.90
2022-11-21T01:59:12.562Z,99.30
2022-11-21T02:01:41.720Z,99.40
2022-11-21T02:04:12.069Z,99.30
2022-11-21T02:06:40.963Z,99.10
2022-11-21T02:09:10.007Z,99.10
2022-11-21T02:11:42.257Z,98.70
2022-11-21T02:14:12.277Z,98.90
2022-11-21T02:16:41.360Z,99.20
2022-11-21T02:19:16.811Z,99.40
2022-11-21T02:21:54.481Z,99.60
2022-11-21T02:24:30.049Z,99.80
2022-11-21T02:27:02.121Z,99.60
2022-11-21T02:29:31.723Z,99.80
2022-11-21T02:32:02.052Z,99.60
2022-11-21T02:34:30.840Z,99.90
2022-11-21T02:37:00.260Z,99.90
2022-11-21T02:39:33.942Z,99.90
2022-11-21T02:42:09.302Z,99.90
2022-11-21T02:44:45.320Z,99.90
2022-11-21T02:47:14.147Z,99.90
2022-11-21T02:49:47.617Z,99.90
2022-11-21T02:52:16.413Z,99.90
2022-11-21T02:54:45.518Z,99.90
2022-11-21T02:57:15.875Z,99.90
2022-11-21T02:59:44.728Z,99.90
2022-11-21T03:02:13.532Z,99.90
2022-11-21T03:04:42.293Z,99.90
2022-11-21T03:07:11.148Z,99.90
2022-11-21T03:09:40.028Z,99.90
2022-11-21T03:12:09.454Z,99.90
2022-11-21T03:14:39.768Z,99.90
2022-11-21T03:17:08.555Z,99.90
2022-11-21T03:19:37.400Z,99.90
2022-11-21T03:22:06.387Z,99.90
2022-11-21T03:24:35.336Z,99.90
2022-11-21T03:27:04.054Z,99.90
2022-11-21T03:29:32.981Z,99.90
2022-11-21T03:32:03.223Z,99.90
2022-11-21T03:34:32.044Z,99.90
2022-11-21T03:37:00.991Z,99.90
2022-11-21T03:39:30.887Z,99.90
2022-11-21T03:41:59.876Z,99.90
2022-11-21T03:44:28.970Z,99.90
2022-11-21T03:46:58.050Z,99.90
2022-11-21T03:49:28.300Z,99.90
2022-11-21T03:51:57.123Z,99.90
2022-11-21T03:54:26.118Z,99.90
2022-11-21T03:56:55.200Z,99.90
2022-11-21T03:59:24.112Z,99.90
2022-11-21T04:01:52.987Z,99.90
2022-11-21T04:04:21.858Z,99.90
2022-11-21T04:06:52.187Z,99.90
2022-11-21T04:09:20.987Z,99.90
2022-11-21T04:11:49.895Z,99.90
2022-11-21T04:14:18.640Z,99.90
2022-11-21T04:16:47.476Z,99.90
2022-11-21T04:19:16.327Z,99.90
2022-11-21T04:21:45.026Z,99.90
2022-11-21T04:24:15.228Z,99.90
2022-11-21T04:26:44.107Z,99.90
2022-11-21T04:29:12.887Z,99.90
2022-11-21T04:31:41.726Z,99.90
2022-11-21T04:34:10.508Z,99.90
2022-11-21T04:36:39.524Z,99.90
2022-11-21T04:39:08.409Z,99.90
2022-11-21T04:41:38.661Z,99.90
2022-11-21T04:44:07.727Z,99.90
2022-11-21T04:46:38.563Z,99.90
2022-11-21T04:49:07.326Z,99.90
2022-11-21T04:51:36.186Z,99.90
2022-11-21T04:54:05.127Z,99.90
2022-11-21T04:56:33.909Z,99.90
2022-11-21T04:59:04.160Z,99.90
2022-11-21T05:01:33.072Z,99.90
2022-11-21T05:04:01.869Z,99.90
2022-11-21T05:06:30.855Z,99.90
2022-11-21T05:08:59.788Z,99.90
2022-11-21T05:11:46.058Z,99.90
2022-11-21T05:14:16.899Z,99.90
2022-11-21T05:16:45.798Z,99.90
2022-11-21T05:19:14.819Z,99.90
2022-11-21T05:21:43.582Z,99.90
2022-11-21T05:24:12.732Z,99.90
2022-11-21T05:26:41.623Z,99.90
2022-11-21T05:29:10.469Z,99.90
2022-11-21T05:31:40.982Z,99.90
2022-11-21T05:34:09.894Z,99.90
2022-11-21T05:36:38.720Z,99.90
2022-11-21T05:39:07.733Z,99.90
2022-11-21T05:41:37.861Z,99.90
2022-11-21T05:44:05.909Z,99.90
2022-11-21T05:46:34.728Z,99.90
2022-11-21T05:49:05.087Z,99.90
2022-11-21T05:51:33.963Z,99.90
2022-11-21T05:54:02.920Z,99.90
2022-11-21T05:56:32.758Z,99.90
2022-11-21T05:59:01.677Z,99.90
2022-11-21T06:01:48.118Z,99.90
2022-11-21T06:04:19.330Z,99.90
2022-11-21T06:06:48.526Z,99.90
2022-11-21T06:09:17.415Z,99.90
2022-11-21T06:11:46.356Z,99.90
2022-11-21T06:14:15.318Z,99.90
2022-11-21T06:16:44.213Z,99.90
2022-11-21T06:19:13.162Z,99.90
2022-11-21T06:21:43.569Z,99.90
2022-11-21T06:24:15.184Z,99.90
2022-11-21T06:26:47.019Z,99.90
2022-11-21T06:29:17.049Z,99.90
2022-11-21T06:31:46.007Z,99.90
2022-11-21T06:34:14.906Z,99.90
2022-11-21T06:36:45.989Z,99.90
2022-11-21T06:39:14.909Z,99.90
2022-11-21T06:41:51.341Z,99.90
2022-11-21T06:44:20.351Z,99.90
2022-11-21T06:46:51.554Z,99.90
2022-11-21T06:49:22.422Z,99.90
2022-11-21T06:51:52.820Z,99.90
2022-11-21T06:54:21.777Z,99.90
2022-11-21T06:56:55.744Z,99.90
2022-11-21T06:59:24.736Z,99.90
2022-11-21T07:01:53.633Z,99.90
2022-11-21T07:04:22.953Z,99.90
2022-11-21T07:06:53.319Z,99.90
2022-11-21T07:09:37.406Z,99.90
2022-11-21T07:12:24.292Z,99.90
2022-11-21T07:14:53.223Z,99.90
2022-11-21T07:17:22.128Z,99.90
2022-11-21T07:19:51.056Z,99.90
2022-11-21T07:22:21.414Z,99.90
2022-11-21T07:24:50.291Z,99.90
2022-11-21T07:27:19.133Z,99.90
2022-11-21T07:29:48.112Z,99.90
2022-11-21T07:32:17.111Z,99.90
2022-11-21T07:34:46.027Z,99.90
2022-11-21T07:37:14.950Z,99.90
2022-11-21T07:39:45.326Z,99.40
2022-11-21T07:42:14.138Z,98.90
2022-11-21T07:44:43.759Z,99.10
2022-11-21T07:47:12.648Z,98.90
2022-11-21T07:49:41.560Z,98.80
2022-11-21T07:52:10.460Z,98.20
2022-11-21T07:54:39.499Z,98.40
2022-11-21T07:57:09.948Z,98.10
2022-11-21T07:59:38.838Z,98.00
2022-11-21T08:02:08.262Z,97.80
2022-11-21T08:04:37.239Z,97.70
2022-11-21T08:07:06.262Z,97.30
2022-11-21T08:09:39.703Z,97.30
2022-11-21T08:12:10.547Z,97.10
2022-11-21T08:14:39.628Z,96.90
2022-11-21T08:17:09.760Z,96.40
2022-11-21T08:19:38.781Z,95.90
2022-11-21T08:22:07.629Z,95.80
2022-11-21T08:24:36.550Z,95.50
2022-11-21T08:27:05.628Z,95.60
2022-11-21T08:29:36.076Z,95.50
2022-11-21T08:32:05.095Z,95.70
2022-11-21T08:34:34.000Z,95.70
2022-11-21T08:37:02.909Z,96.00
2022-11-21T08:39:32.454Z,96.10
2022-11-21T08:42:07.036Z,95.90
2022-11-21T08:44:37.582Z,96.20
2022-11-21T08:47:06.805Z,96.50
2022-11-21T08:49:36.108Z,96.20
2022-11-21T08:52:05.183Z,96.50
2022-11-21T08:54:34.082Z,96.00
2022-11-21T08:57:02.991Z,96.10
2022-11-21T08:59:31.932Z,96.00
2022-11-21T09:02:02.358Z,95.00
2022-11-21T09:04:31.364Z,94.00
2022-11-21T09:07:00.944Z,93.70
2022-11-21T09:09:29.888Z,93.20
2022-11-21T09:11:58.778Z,93.00
2022-11-21T09:14:44.954Z,93.70
2022-11-21T09:17:34.190Z,93.20
2022-11-21T09:20:03.126Z,93.50
2022-11-21T09:22:32.115Z,93.90
2022-11-21T09:25:01.056Z,93.10
2022-11-21T09:27:30.054Z,92.30
2022-11-21T09:29:59.024Z,92.20
2022-11-21T09:32:29.377Z,91.90
2022-11-21T09:34:58.274Z,91.60
2022-11-21T09:37:27.234Z,91.70
2022-11-21T09:39:56.167Z,92.10
2022-11-21T09:42:40.450Z,92.40
2022-11-21T09:45:14.979Z,92.20
2022-11-21T09:47:47.376Z,90.40
2022-11-21T09:50:27.386Z,87.60
2022-11-21T09:53:02.216Z,85.90
2022-11-21T09:55:38.857Z,84.80
2022-11-21T09:58:17.605Z,86.30
2022-11-21T10:00:46.679Z,83.20
2022-11-21T10:03:22.142Z,84.00
2022-11-21T10:05:55.554Z,84.50
2022-11-21T10:08:35.497Z,82.10
2022-11-21T10:11:19.778Z,79.90
2022-11-21T10:13:59.365Z,80.90
2022-11-21T10:16:40.735Z,78.70
2022-11-21T10:19:35.424Z,77.70
2022-11-21T10:22:30.463Z,77.30
2022-11-21T10:25:12.690Z,77.10
2022-11-21T10:27:45.193Z,74.50
2022-11-21T10:30:19.292Z,72.90
2022-11-21T10:32:51.252Z,73.30
2022-11-21T10:35:26.224Z,74.10
2022-11-21T10:37:57.373Z,73.10
2022-11-21T10:40:36.585Z,74.00
2022-11-21T10:43:28.377Z,72.10
2022-11-21T10:45:57.552Z,72.20
2022-11-21T10:48:26.411Z,72.60
2022-11-21T10:51:27.915Z,73.10
2022-11-21T10:54:27.009Z,73.80
2022-11-21T10:57:00.399Z,72.30
2022-11-21T10:59:31.580Z,71.60
2022-11-21T11:02:02.563Z,71.50
2022-11-21T11:04:45.694Z,70.00
2022-11-21T11:07:28.724Z,70.10
2022-11-21T11:10:17.965Z,69.80
2022-11-21T11:13:30.723Z,68.90
2022-11-21T11:16:04.967Z,66.80
2022-11-21T11:18:36.688Z,68.60
2022-11-21T11:21:17.993Z,69.00
2022-11-21T11:23:49.516Z,68.70
2022-11-21T11:26:27.925Z,65.60
2022-11-21T11:29:10.726Z,66.60
2022-11-21T11:31:44.220Z,65.20
2022-11-21T11:34:16.954Z,65.80
2022-11-21T11:37:05.049Z,63.10
2022-11-21T11:39:41.716Z,61.90
2022-11-21T11:42:53.451Z,62.60
2022-11-21T11:46:05.581Z,62.60
2022-11-21T11:48:56.556Z,62.80
2022-11-21T11:51:33.460Z,61.00
2022-11-21T11:54:09.039Z,59.40
2022-11-21T11:56:40.329Z,60.30
2022-11-21T11:59:17.693Z,62.30
2022-11-21T12:01:52.274Z,63.00
2022-11-21T12:04:22.784Z,59.80
2022-11-21T12:09:53.777Z,60.60
2022-11-21T12:12:32.979Z,60.70
2022-11-21T12:15:38.011Z,60.00
2022-11-21T12:18:17.598Z,61.20
2022-11-21T12:20:55.951Z,60.60
2022-11-21T12:23:28.597Z,59.50
2022-11-21T12:26:08.718Z,59.00
2022-11-21T12:28:49.608Z,59.10
2022-11-21T12:31:27.161Z,58.30
2022-11-21T12:34:05.655Z,59.20
2022-11-21T12:36:42.905Z,57.90
2022-11-21T12:39:44.684Z,58.90
2022-11-21T12:42:37.242Z,61.70
2022-11-21T12:45:29.123Z,61.10
2022-11-21T12:48:40.262Z,61.40
2022-11-21T12:51:49.634Z,60.80
2022-11-21T12:54:38.851Z,60.90
2022-11-21T12:57:11.998Z,61.30
2022-11-21T12:59:52.627Z,62.30
2022-11-21T13:02:31.589Z,62.10
2022-11-21T13:05:02.837Z,61.50
2022-11-21T13:07:33.699Z,60.30
2022-11-21T13:10:04.237Z,60.10
2022-11-21T13:12:41.830Z,60.00
2022-11-21T13:15:24.119Z,59.70
2022-11-21T13:17:58.091Z,60.00
2022-11-21T13:20:32.161Z,62.50
2022-11-21T13:23:06.596Z,62.70
2022-11-21T13:25:40.648Z,63.20
2022-11-21T13:28:35.776Z,63.50
2022-11-21T13:31:22.425Z,65.50
2022-11-21T13:33:55.626Z,67.90
2022-11-21T13:36:45.380Z,69.80
2022-11-21T13:39:38.660Z,70.90
2022-11-21T13:42:31.806Z,71.20
2022-11-21T13:45:21.826Z,70.90
2022-11-21T13:48:18.881Z,71.20
2022-11-21T13:51:28.347Z,72.70
2022-11-21T13:54:18.394Z,73.50
2022-11-21T13:57:03.141Z,74.00
2022-11-21T13:59:44.504Z,74.80
2022-11-21T14:02:50.624Z,75.70
2022-11-21T14:05:47.609Z,76.30
2022-11-21T14:08:22.300Z,76.10
2022-11-21T14:10:53.334Z,76.20
2022-11-21T14:13:29.334Z,76.70
2022-11-21T14:16:17.243Z,77.30
2022-11-21T14:18:47.796Z,78.00
2022-11-21T14:21:22.398Z,78.80
2022-11-21T14:23:52.720Z,78.50
2022-11-21T14:26:22.697Z,79.00
2022-11-21T14:28:52.175Z,79.10
2022-11-21T14:31:21.225Z,79.80
2022-11-21T14:33:50.540Z,79.80
2022-11-21T14:36:21.583Z,80.30
2022-11-21T14:39:20.786Z,80.40
2022-11-21T14:41:44.995Z,79.50
2022-11-21T14:44:19.704Z,79.10
2022-11-21T14:46:49.315Z,79.60
2022-11-21T14:49:24.815Z,79.50
2022-11-21T14:52:00.025Z,79.80
2022-11-21T14:54:34.862Z,80.70
2022-11-21T14:57:05.366Z,81.30
2022-11-21T14:59:39.951Z,81.80
2022-11-21T15:02:13.842Z,83.30
2022-11-21T15:04:44.450Z,83.80
2022-11-21T15:07:25.641Z,85.50
2022-11-21T15:12:55.284Z,86.60
2022-11-21T15:15:29.943Z,86.90
2022-11-21T15:18:26.293Z,88.00
2022-11-21T15:20:51.189Z,88.40
2022-11-21T15:23:30.999Z,89.00
2022-11-21T15:26:02.246Z,90.00
2022-11-21T15:28:31.755Z,90.40
2022-11-21T15:31:19.715Z,90.90
2022-11-21T15:37:05.866Z,90.90
2022-11-21T15:39:36.056Z,91.50
2022-11-21T15:42:36.120Z,91.50
2022-11-21T15:45:22.018Z,91.90
2022-11-21T15:47:50.848Z,92.40
2022-11-21T15:50:19.755Z,93.00
2022-11-21T15:52:49.660Z,92.70
2022-11-21T15:55:21.231Z,92.90
2022-11-21T15:57:51.549Z,93.30
2022-11-21T16:00:20.690Z,93.30
2022-11-21T16:02:49.470Z,93.50
2022-11-21T16:05:18.309Z,93.60
2022-11-21T16:07:48.783Z,94.10
2022-11-21T16:10:24.421Z,94.00
2022-11-21T16:12:58.027Z,94.10
2022-11-21T16:15:26.823Z,94.20
2022-11-21T16:17:55.611Z,94.40
2022-11-21T16:20:24.466Z,94.60
2022-11-21T16:22:53.300Z,94.70
2022-11-21T16:25:22.137Z,94.60
2022-11-21T16:27:50.883Z,94.70
2022-11-21T16:30:21.271Z,95.10
2022-11-21T16:32:51.410Z,95.50
2022-11-21T16:35:20.187Z,94.70
2022-11-21T16:37:49.123Z,95.10
2022-11-21T16:40:18.485Z,95.00
2022-11-21T16:42:47.244Z,95.30
2022-11-21T16:45:16.137Z,94.90
2022-11-21T16:47:48.970Z,95.00
2022-11-21T16:50:18.619Z,95.10
2022-11-21T16:52:47.393Z,95.30
2022-11-21T16:55:16.319Z,95.60
2022-11-21T16:57:45.156Z,95.60
2022-11-21T17:00:14.605Z,95.40
2022-11-21T17:02:43.377Z,95.90
2022-11-21T17:05:13.647Z,95.90
2022-11-21T17:07:42.521Z,96.20
2022-11-21T17:10:11.996Z,96.10
2022-11-21T17:12:43.270Z,96.40
2022-11-21T17:15:14.835Z,96.80
2022-11-21T17:17:43.696Z,96.70
2022-11-21T17:20:14.476Z,96.60
2022-11-21T17:22:43.306Z,96.60
2022-11-21T17:25:12.915Z,96.80
2022-11-21T17:27:42.849Z,97.00
2022-11-21T17:30:13.107Z,96.80
2022-11-21T17:32:41.865Z,96.60
2022-11-21T17:35:11.445Z,96.50
2022-11-21T17:37:41.707Z,96.70
2022-11-21T17:40:12.275Z,96.20
2022-11-21T17:42:43.465Z,96.50
2022-11-21T17:45:14.851Z,96.60
2022-11-21T17:47:44.199Z,96.60
2022-11-21T17:50:13.074Z,96.50
2022-11-21T17:52:43.295Z,96.50
2022-11-21T17:55:12.115Z,96.30
2022-11-21T17:57:40.875Z,96.40
2022-11-21T18:00:11.075Z,96.60
2022-11-21T18:02:40.020Z,96.50
2022-11-21T18:05:09.129Z,96.30
2022-11-21T18:07:37.996Z,96.40
2022-11-21T18:10:40.706Z,96.30
2022-11-21T18:12:58.034Z,96.50
2022-11-21T18:15:26.850Z,96.20
2022-11-21T18:17:55.655Z,96.80
2022-11-21T18:20:24.899Z,96.90
2022-11-21T18:22:53.702Z,97.50
2022-11-21T18:25:23.958Z,97.90
2022-11-21T18:27:54.763Z,98.10
2022-11-21T18:30:23.785Z,98.10
2022-11-21T18:32:52.745Z,98.00
2022-11-21T18:35:21.587Z,98.30
2022-11-21T18:37:50.527Z,98.30
2022-11-21T18:40:19.592Z,98.30
2022-11-21T18:42:49.756Z,98.00
2022-11-21T18:45:19.095Z,97.80
2022-11-21T18:47:48.465Z,97.60
2022-11-21T18:50:17.826Z,97.80
2022-11-21T18:52:47.116Z,97.90
2022-11-21T18:55:16.256Z,98.10
2022-11-21T18:57:45.095Z,98.00
2022-11-21T19:00:16.690Z,98.00
2022-11-21T19:02:45.746Z,98.30
2022-11-21T19:05:20.230Z,97.90
2022-11-21T19:07:49.528Z,97.40
2022-11-21T19:10:41.979Z,97.20
2022-11-21T19:13:08.668Z,97.70
2022-11-21T19:15:39.337Z,97.80
2022-11-21T19:18:08.283Z,98.00
2022-11-21T19:20:37.481Z,98.00
2022-11-21T19:23:06.597Z,97.80
2022-11-21T19:25:35.748Z,98.00
2022-11-21T19:28:05.698Z,98.00
2022-11-21T19:30:36.448Z,98.00
2022-11-21T19:33:06.789Z,98.00
2022-11-21T19:35:41.020Z,98.40
2022-11-21T19:38:09.830Z,98.10
2022-11-21T19:40:52.488Z,97.60
2022-11-21T19:43:21.308Z,97.80
2022-11-21T19:45:53.719Z,98.10
2022-11-21T19:48:28.172Z,98.20
2022-11-21T19:50:58.624Z,98.20
2022-11-21T19:53:29.438Z,98.20
2022-11-21T19:55:58.300Z,98.40
2022-11-21T19:58:27.679Z,98.60
2022-11-21T20:00:56.724Z,98.50
2022-11-21T20:03:25.766Z,98.40
2022-11-21T20:06:03.208Z,98.10
2022-11-21T20:08:32.055Z,98.00
2022-11-21T20:11:10.535Z,97.60
2022-11-21T20:13:41.417Z,97.60
2022-11-21T20:16:18.737Z,97.70
2022-11-21T20:18:48.348Z,97.80
2022-11-21T20:21:19.666Z,97.90
2022-11-21T20:23:48.842Z,97.40
2022-11-21T20:26:19.220Z,97.60
2022-11-21T20:28:48.144Z,97.40
2022-11-21T20:31:18.448Z,97.40
2022-11-21T20:33:49.279Z,97.10
2022-11-21T20:36:20.994Z,97.10
2022-11-21T20:38:52.184Z,97.10
2022-11-21T20:41:21.515Z,96.40
2022-11-21T20:44:41.687Z,96.20
2022-11-21T20:46:39.507Z,96.20
2022-11-21T20:49:08.751Z,96.20
2022-11-21T20:54:28.420Z,95.60
2022-11-21T20:56:58.680Z,95.10
2022-11-21T20:59:27.883Z,95.30
2022-11-21T21:01:57.134Z,95.20
2022-11-21T21:04:26.014Z,95.10
2022-11-21T21:06:57.473Z,95.00
2022-11-21T21:09:26.353Z,95.00
2022-11-21T21:11:55.198Z,95.10
2022-11-21T21:14:24.078Z,95.30
2022-11-21T21:16:52.889Z,95.30
2022-11-21T21:19:21.938Z,95.50
2022-11-21T21:21:50.818Z,95.50
2022-11-21T21:24:21.087Z,95.70
2022-11-21T21:26:50.622Z,95.60
2022-11-21T21:29:22.098Z,95.40
2022-11-21T21:31:52.393Z,94.90
2022-11-21T21:34:22.477Z,94.80
2022-11-21T21:36:51.760Z,95.00
2022-11-21T21:39:22.246Z,94.90
2022-11-21T21:41:51.068Z,94.50
2022-11-21T21:44:19.958Z,94.50
2022-11-21T21:46:48.854Z,94.40
2022-11-21T21:49:17.619Z,94.10
2022-11-21T21:51:46.442Z,93.60
2022-11-21T21:54:18.833Z,93.50
2022-11-21T21:56:49.734Z,93.70
2022-11-21T21:59:19.980Z,94.30
2022-11-21T22:01:49.314Z,93.80
2022-11-21T22:04:18.665Z,94.10
2022-11-21T22:06:47.503Z,94.50
2022-11-21T22:09:16.290Z,94.00
2022-11-21T22:11:45.162Z,94.50
2022-11-21T22:14:16.887Z,94.40
2022-11-21T22:16:45.814Z,94.70
2022-11-21T22:19:15.656Z,94.90
2022-11-21T22:21:44.543Z,95.50
2022-11-21T22:24:30.000Z,96.10
2022-11-21T22:26:59.120Z,96.20
2022-11-21T22:29:29.385Z,97.90
2022-11-21T22:31:58.244Z,98.80
2022-11-21T22:34:27.038Z,99.60
2022-11-21T22:36:55.822Z,99.90
2022-11-21T22:39:24.655Z,99.90
2022-11-21T22:41:58.406Z,99.90
2022-11-21T22:44:30.386Z,99.90
2022-11-21T22:46:59.863Z,99.90
2022-11-21T22:49:28.862Z,99.90
2022-11-21T22:51:59.142Z,99.90
2022-11-21T22:54:28.261Z,99.90
2022-11-21T22:56:57.217Z,99.90
2022-11-21T22:59:26.015Z,99.90
2022-11-21T23:01:57.555Z,99.90
2022-11-21T23:04:26.436Z,99.90
2022-11-21T23:06:55.166Z,99.90
2022-11-21T23:09:24.615Z,99.90
2022-11-21T23:11:53.597Z,99.90
2022-11-21T23:14:22.420Z,99.90
2022-11-21T23:16:51.486Z,99.90
2022-11-21T23:19:21.719Z,99.90
2022-11-21T23:21:50.848Z,99.90
2022-11-21T23:24:19.688Z,99.90
2022-11-21T23:26:48.449Z,99.90
2022-11-21T23:29:17.251Z,99.90
2022-11-21T23:31:46.053Z,99.90
2022-11-21T23:34:14.964Z,99.90
2022-11-21T23:36:45.328Z,99.90
2022-11-21T23:39:14.108Z,99.90
2022-11-21T23:41:42.915Z,99.90
2022-11-21T23:44:11.777Z,99.90
2022-11-21T23:46:41.755Z,99.90
2022-11-21T23:49:10.622Z,99.90
2022-11-21T23:51:39.511Z,99.90
2022-11-21T23:54:09.794Z,99.90
2022-11-21T23:56:38.755Z,99.90
2022-11-21T23:59:07.586Z,99.90
